sensor_id;sensor_type;location;lat;lon;timestamp;P1;durP1;ratioP1;P2;durP2;ratioP2
69414;SDS011;56608;43.530;-5.652;2023-04-15T00:00:58;34.25;;;6.87;;
69414;SDS011;56608;43.530;-5.652;2023-04-15T00:01:59;34.60;;;6.85;;
69414;SDS011;56608;43.530;-5.652;2023-04-15T00:03:00;30.67;;;6.25;;
69414;SDS011;56608;43.530;-5.652;2023-04-15T00:04:01;32.10;;;6.65;;
69414;SDS011;56608;43.530;-5.652;2023-04-15T00:05:04;36.75;;;7.40;;
69414;SDS011;56608;43.530;-5.652;2023-04-15T00:06:06;37.05;;;7.35;;
69414;SDS011;56608;43.530;-5.652;2023-04-15T00:07:06;36.03;;;7.23;;
69414;SDS011;56608;43.530;-5.652;2023-04-15T00:08:08;33.20;;;6.30;;
69414;SDS011;56608;43.530;-5.652;2023-04-15T00:09:09;46.70;;;8.20;;
69414;SDS011;56608;43.530;-5.652;2023-04-15T00:10:11;37.13;;;7.68;;
69414;SDS011;56608;43.530;-5.652;2023-04-15T00:11:14;36.25;;;7.10;;
69414;SDS011;56608;43.530;-5.652;2023-04-15T00:12:14;40.45;;;6.20;;
69414;SDS011;56608;43.530;-5.652;2023-04-15T00:13:16;42.10;;;7.20;;
69414;SDS011;56608;43.530;-5.652;2023-04-15T00:14:18;40.00;;;7.40;;
69414;SDS011;56608;43.530;-5.652;2023-04-15T00:15:19;45.00;;;6.97;;
69414;SDS011;56608;43.530;-5.652;2023-04-15T00:16:20;39.38;;;7.40;;
69414;SDS011;56608;43.530;-5.652;2023-04-15T00:17:22;41.90;;;6.75;;
69414;SDS011;56608;43.530;-5.652;2023-04-15T00:18:23;30.00;;;6.20;;
69414;SDS011;56608;43.530;-5.652;2023-04-15T00:19:24;33.50;;;6.55;;
69414;SDS011;56608;43.530;-5.652;2023-04-15T00:20:26;31.23;;;6.18;;
69414;SDS011;56608;43.530;-5.652;2023-04-15T00:21:26;40.40;;;7.00;;
69414;SDS011;56608;43.530;-5.652;2023-04-15T00:22:28;38.15;;;6.25;;
69414;SDS011;56608;43.530;-5.652;2023-04-15T00:24:31;40.90;;;6.28;;
69414;SDS011;56608;43.530;-5.652;2023-04-15T00:25:32;36.93;;;6.37;;
69414;SDS011;56608;43.530;-5.652;2023-04-15T00:26:34;39.10;;;6.75;;
69414;SDS011;56608;43.530;-5.652;2023-04-15T00:27:35;27.10;;;5.80;;
69414;SDS011;56608;43.530;-5.652;2023-04-15T00:28:37;31.90;;;5.68;;
69414;SDS011;56608;43.530;-5.652;2023-04-15T00:29:38;27.80;;;5.10;;
69414;SDS011;56608;43.530;-5.652;2023-04-15T00:30:39;36.15;;;5.95;;
69414;SDS011;56608;43.530;-5.652;2023-04-15T00:31:40;24.05;;;5.30;;
69414;SDS011;56608;43.530;-5.652;2023-04-15T00:32:42;35.55;;;7.30;;
69414;SDS011;56608;43.530;-5.652;2023-04-15T00:33:44;31.70;;;5.70;;
69414;SDS011;56608;43.530;-5.652;2023-04-15T00:34:45;35.25;;;5.80;;
69414;SDS011;56608;43.530;-5.652;2023-04-15T00:35:47;40.00;;;6.87;;
69414;SDS011;56608;43.530;-5.652;2023-04-15T00:36:49;40.60;;;6.70;;
69414;SDS011;56608;43.530;-5.652;2023-04-15T00:37:51;37.15;;;6.70;;
69414;SDS011;56608;43.530;-5.652;2023-04-15T00:38:52;32.90;;;5.90;;
69414;SDS011;56608;43.530;-5.652;2023-04-15T00:40:54;32.75;;;6.10;;
69414;SDS011;56608;43.530;-5.652;2023-04-15T00:41:56;30.25;;;5.70;;
69414;SDS011;56608;43.530;-5.652;2023-04-15T00:42:58;41.95;;;6.57;;
69414;SDS011;56608;43.530;-5.652;2023-04-15T00:45:03;38.15;;;5.90;;
69414;SDS011;56608;43.530;-5.652;2023-04-15T00:46:05;38.00;;;5.80;;
69414;SDS011;56608;43.530;-5.652;2023-04-15T00:47:07;32.00;;;5.15;;
69414;SDS011;56608;43.530;-5.652;2023-04-15T00:49:10;41.50;;;6.45;;
69414;SDS011;56608;43.530;-5.652;2023-04-15T00:50:13;35.95;;;6.70;;
69414;SDS011;56608;43.530;-5.652;2023-04-15T00:51:13;37.15;;;7.40;;
69414;SDS011;56608;43.530;-5.652;2023-04-15T00:52:15;29.50;;;5.90;;
69414;SDS011;56608;43.530;-5.652;2023-04-15T00:53:16;42.62;;;7.00;;
69414;SDS011;56608;43.530;-5.652;2023-04-15T00:54:18;40.90;;;7.43;;
69414;SDS011;56608;43.530;-5.652;2023-04-15T00:55:19;38.67;;;7.37;;
69414;SDS011;56608;43.530;-5.652;2023-04-15T00:56:21;33.38;;;6.80;;
69414;SDS011;56608;43.530;-5.652;2023-04-15T00:57:24;36.10;;;6.15;;
69414;SDS011;56608;43.530;-5.652;2023-04-15T00:58:27;37.60;;;7.35;;
69414;SDS011;56608;43.530;-5.652;2023-04-15T01:00:29;42.33;;;7.53;;
69414;SDS011;56608;43.530;-5.652;2023-04-15T01:01:32;36.35;;;6.28;;
69414;SDS011;56608;43.530;-5.652;2023-04-15T01:02:35;28.60;;;5.40;;
69414;SDS011;56608;43.530;-5.652;2023-04-15T01:03:36;40.42;;;6.87;;
69414;SDS011;56608;43.530;-5.652;2023-04-15T01:04:38;30.48;;;6.37;;
69414;SDS011;56608;43.530;-5.652;2023-04-15T01:05:39;38.65;;;7.57;;
69414;SDS011;56608;43.530;-5.652;2023-04-15T01:06:41;31.15;;;5.65;;
69414;SDS011;56608;43.530;-5.652;2023-04-15T01:07:43;37.28;;;6.43;;
69414;SDS011;56608;43.530;-5.652;2023-04-15T01:08:44;36.70;;;6.85;;
69414;SDS011;56608;43.530;-5.652;2023-04-15T01:09:45;34.08;;;5.87;;
69414;SDS011;56608;43.530;-5.652;2023-04-15T01:10:47;46.10;;;7.35;;
69414;SDS011;56608;43.530;-5.652;2023-04-15T01:11:49;34.10;;;6.70;;
69414;SDS011;56608;43.530;-5.652;2023-04-15T01:12:49;35.85;;;6.65;;
69414;SDS011;56608;43.530;-5.652;2023-04-15T01:13:51;35.55;;;6.00;;
69414;SDS011;56608;43.530;-5.652;2023-04-15T01:15:54;36.95;;;7.05;;
69414;SDS011;56608;43.530;-5.652;2023-04-15T01:16:55;34.45;;;6.45;;
69414;SDS011;56608;43.530;-5.652;2023-04-15T01:17:58;39.65;;;6.85;;
69414;SDS011;56608;43.530;-5.652;2023-04-15T01:18:59;40.55;;;7.10;;
69414;SDS011;56608;43.530;-5.652;2023-04-15T01:20:01;40.88;;;7.75;;
69414;SDS011;56608;43.530;-5.652;2023-04-15T01:22:03;44.88;;;8.07;;
69414;SDS011;56608;43.530;-5.652;2023-04-15T01:23:05;38.90;;;6.82;;
69414;SDS011;56608;43.530;-5.652;2023-04-15T01:25:10;34.60;;;6.85;;
69414;SDS011;56608;43.530;-5.652;2023-04-15T01:26:16;45.90;;;6.85;;
69414;SDS011;56608;43.530;-5.652;2023-04-15T01:28:19;44.10;;;7.80;;
69414;SDS011;56608;43.530;-5.652;2023-04-15T01:29:21;34.10;;;6.85;;
69414;SDS011;56608;43.530;-5.652;2023-04-15T01:30:23;41.95;;;7.25;;
69414;SDS011;56608;43.530;-5.652;2023-04-15T01:31:23;41.65;;;6.80;;
69414;SDS011;56608;43.530;-5.652;2023-04-15T01:32:25;45.35;;;7.65;;
69414;SDS011;56608;43.530;-5.652;2023-04-15T01:33:27;41.30;;;6.85;;
69414;SDS011;56608;43.530;-5.652;2023-04-15T01:34:27;39.90;;;6.40;;
69414;SDS011;56608;43.530;-5.652;2023-04-15T01:35:29;43.95;;;7.50;;
69414;SDS011;56608;43.530;-5.652;2023-04-15T01:36:31;44.60;;;7.72;;
69414;SDS011;56608;43.530;-5.652;2023-04-15T01:37:32;41.80;;;6.03;;
69414;SDS011;56608;43.530;-5.652;2023-04-15T01:38:33;38.10;;;6.70;;
69414;SDS011;56608;43.530;-5.652;2023-04-15T01:39:35;28.90;;;6.25;;
69414;SDS011;56608;43.530;-5.652;2023-04-15T01:40:36;47.13;;;7.68;;
69414;SDS011;56608;43.530;-5.652;2023-04-15T01:41:37;33.97;;;6.47;;
69414;SDS011;56608;43.530;-5.652;2023-04-15T01:42:40;27.25;;;5.40;;
69414;SDS011;56608;43.530;-5.652;2023-04-15T01:43:41;32.92;;;6.68;;
69414;SDS011;56608;43.530;-5.652;2023-04-15T01:44:43;32.80;;;6.15;;
69414;SDS011;56608;43.530;-5.652;2023-04-15T01:45:44;40.60;;;6.70;;
69414;SDS011;56608;43.530;-5.652;2023-04-15T01:46:46;43.60;;;7.80;;
69414;SDS011;56608;43.530;-5.652;2023-04-15T01:47:48;31.87;;;6.10;;
69414;SDS011;56608;43.530;-5.652;2023-04-15T01:48:50;40.35;;;7.20;;
69414;SDS011;56608;43.530;-5.652;2023-04-15T01:49:51;39.92;;;7.53;;
69414;SDS011;56608;43.530;-5.652;2023-04-15T01:50:53;34.80;;;6.40;;
69414;SDS011;56608;43.530;-5.652;2023-04-15T01:51:57;39.45;;;6.55;;
69414;SDS011;56608;43.530;-5.652;2023-04-15T01:52:58;37.05;;;7.25;;
69414;SDS011;56608;43.530;-5.652;2023-04-15T01:53:59;34.38;;;6.22;;
69414;SDS011;56608;43.530;-5.652;2023-04-15T01:55:01;35.80;;;6.37;;
69414;SDS011;56608;43.530;-5.652;2023-04-15T01:56:01;45.30;;;7.40;;
69414;SDS011;56608;43.530;-5.652;2023-04-15T01:57:03;38.55;;;7.20;;
69414;SDS011;56608;43.530;-5.652;2023-04-15T01:59:05;37.45;;;5.95;;
69414;SDS011;56608;43.530;-5.652;2023-04-15T02:00:07;35.45;;;6.10;;
69414;SDS011;56608;43.530;-5.652;2023-04-15T02:01:09;33.85;;;6.80;;
69414;SDS011;56608;43.530;-5.652;2023-04-15T02:02:11;38.05;;;6.65;;
69414;SDS011;56608;43.530;-5.652;2023-04-15T02:03:12;40.80;;;6.35;;
69414;SDS011;56608;43.530;-5.652;2023-04-15T02:04:14;36.60;;;6.85;;
69414;SDS011;56608;43.530;-5.652;2023-04-15T02:05:16;35.50;;;6.25;;
69414;SDS011;56608;43.530;-5.652;2023-04-15T02:06:18;36.58;;;6.85;;
69414;SDS011;56608;43.530;-5.652;2023-04-15T02:07:19;33.15;;;5.90;;
69414;SDS011;56608;43.530;-5.652;2023-04-15T02:08:20;38.22;;;6.25;;
69414;SDS011;56608;43.530;-5.652;2023-04-15T02:09:22;39.10;;;6.80;;
69414;SDS011;56608;43.530;-5.652;2023-04-15T02:10:23;37.88;;;6.60;;
69414;SDS011;56608;43.530;-5.652;2023-04-15T02:11:25;26.35;;;5.60;;
69414;SDS011;56608;43.530;-5.652;2023-04-15T02:12:26;31.90;;;5.80;;
69414;SDS011;56608;43.530;-5.652;2023-04-15T02:13:28;42.40;;;6.45;;
69414;SDS011;56608;43.530;-5.652;2023-04-15T02:14:29;30.80;;;6.00;;
69414;SDS011;56608;43.530;-5.652;2023-04-15T02:15:31;38.85;;;5.95;;
69414;SDS011;56608;43.530;-5.652;2023-04-15T02:17:34;39.53;;;6.80;;
69414;SDS011;56608;43.530;-5.652;2023-04-15T02:18:37;40.45;;;7.20;;
69414;SDS011;56608;43.530;-5.652;2023-04-15T02:19:38;38.70;;;6.70;;
69414;SDS011;56608;43.530;-5.652;2023-04-15T02:20:40;42.90;;;7.15;;
69414;SDS011;56608;43.530;-5.652;2023-04-15T02:21:43;33.25;;;6.20;;
69414;SDS011;56608;43.530;-5.652;2023-04-15T02:22:43;39.20;;;6.90;;
69414;SDS011;56608;43.530;-5.652;2023-04-15T02:23:45;35.00;;;6.35;;
69414;SDS011;56608;43.530;-5.652;2023-04-15T02:24:48;35.80;;;6.80;;
69414;SDS011;56608;43.530;-5.652;2023-04-15T02:25:49;42.33;;;6.68;;
69414;SDS011;56608;43.530;-5.652;2023-04-15T02:27:52;37.95;;;6.68;;
69414;SDS011;56608;43.530;-5.652;2023-04-15T02:28:54;40.85;;;7.20;;
69414;SDS011;56608;43.530;-5.652;2023-04-15T02:29:55;37.35;;;7.72;;
69414;SDS011;56608;43.530;-5.652;2023-04-15T02:30:55;39.20;;;7.05;;
69414;SDS011;56608;43.530;-5.652;2023-04-15T02:31:59;36.80;;;7.55;;
69414;SDS011;56608;43.530;-5.652;2023-04-15T02:32:59;30.00;;;5.90;;
69414;SDS011;56608;43.530;-5.652;2023-04-15T02:34:01;32.20;;;6.65;;
69414;SDS011;56608;43.530;-5.652;2023-04-15T02:35:04;37.95;;;6.70;;
69414;SDS011;56608;43.530;-5.652;2023-04-15T02:36:07;38.20;;;6.00;;
69414;SDS011;56608;43.530;-5.652;2023-04-15T02:37:10;34.75;;;6.10;;
69414;SDS011;56608;43.530;-5.652;2023-04-15T02:38:13;35.90;;;6.10;;
69414;SDS011;56608;43.530;-5.652;2023-04-15T02:39:16;36.25;;;6.90;;
69414;SDS011;56608;43.530;-5.652;2023-04-15T02:40:18;45.75;;;7.30;;
69414;SDS011;56608;43.530;-5.652;2023-04-15T02:41:20;36.67;;;6.35;;
69414;SDS011;56608;43.530;-5.652;2023-04-15T02:42:25;34.90;;;6.45;;
69414;SDS011;56608;43.530;-5.652;2023-04-15T02:43:28;35.15;;;6.20;;
69414;SDS011;56608;43.530;-5.652;2023-04-15T02:46:31;32.00;;;6.10;;
69414;SDS011;56608;43.530;-5.652;2023-04-15T02:47:33;33.90;;;6.75;;
69414;SDS011;56608;43.530;-5.652;2023-04-15T02:48:35;35.80;;;6.00;;
69414;SDS011;56608;43.530;-5.652;2023-04-15T02:49:37;30.40;;;6.25;;
69414;SDS011;56608;43.530;-5.652;2023-04-15T02:50:38;37.47;;;7.00;;
69414;SDS011;56608;43.530;-5.652;2023-04-15T02:51:40;36.95;;;6.40;;
69414;SDS011;56608;43.530;-5.652;2023-04-15T02:52:42;28.62;;;5.72;;
69414;SDS011;56608;43.530;-5.652;2023-04-15T02:53:44;35.90;;;6.40;;
69414;SDS011;56608;43.530;-5.652;2023-04-15T02:54:47;44.35;;;6.50;;
69414;SDS011;56608;43.530;-5.652;2023-04-15T02:55:48;34.08;;;6.45;;
69414;SDS011;56608;43.530;-5.652;2023-04-15T02:56:50;38.60;;;6.85;;
69414;SDS011;56608;43.530;-5.652;2023-04-15T02:57:55;39.65;;;6.85;;
69414;SDS011;56608;43.530;-5.652;2023-04-15T02:58:58;37.80;;;6.90;;
69414;SDS011;56608;43.530;-5.652;2023-04-15T02:59:59;28.50;;;6.00;;
69414;SDS011;56608;43.530;-5.652;2023-04-15T03:01:01;40.10;;;7.60;;
69414;SDS011;56608;43.530;-5.652;2023-04-15T03:02:02;34.40;;;6.12;;
69414;SDS011;56608;43.530;-5.652;2023-04-15T03:03:03;33.63;;;5.87;;
69414;SDS011;56608;43.530;-5.652;2023-04-15T03:04:05;43.00;;;6.40;;
69414;SDS011;56608;43.530;-5.652;2023-04-15T03:05:10;33.35;;;6.50;;
69414;SDS011;56608;43.530;-5.652;2023-04-15T03:06:13;41.20;;;7.10;;
69414;SDS011;56608;43.530;-5.652;2023-04-15T03:08:16;40.85;;;6.43;;
69414;SDS011;56608;43.530;-5.652;2023-04-15T03:09:17;46.80;;;7.70;;
69414;SDS011;56608;43.530;-5.652;2023-04-15T03:10:18;35.97;;;6.77;;
69414;SDS011;56608;43.530;-5.652;2023-04-15T03:11:20;39.25;;;6.55;;
69414;SDS011;56608;43.530;-5.652;2023-04-15T03:12:21;35.92;;;7.15;;
69414;SDS011;56608;43.530;-5.652;2023-04-15T03:13:23;36.25;;;6.50;;
69414;SDS011;56608;43.530;-5.652;2023-04-15T03:14:24;33.38;;;6.78;;
69414;SDS011;56608;43.530;-5.652;2023-04-15T03:15:27;44.85;;;7.85;;
69414;SDS011;56608;43.530;-5.652;2023-04-15T03:16:28;32.35;;;6.65;;
69414;SDS011;56608;43.530;-5.652;2023-04-15T03:17:30;39.70;;;6.95;;
69414;SDS011;56608;43.530;-5.652;2023-04-15T03:18:32;40.90;;;8.05;;
69414;SDS011;56608;43.530;-5.652;2023-04-15T03:19:33;49.97;;;7.45;;
69414;SDS011;56608;43.530;-5.652;2023-04-15T03:20:35;37.50;;;7.00;;
69414;SDS011;56608;43.530;-5.652;2023-04-15T03:22:38;48.20;;;7.82;;
69414;SDS011;56608;43.530;-5.652;2023-04-15T03:23:38;38.03;;;6.43;;
69414;SDS011;56608;43.530;-5.652;2023-04-15T03:24:40;40.20;;;7.20;;
69414;SDS011;56608;43.530;-5.652;2023-04-15T03:25:43;38.75;;;7.22;;
69414;SDS011;56608;43.530;-5.652;2023-04-15T03:26:44;39.25;;;6.75;;
69414;SDS011;56608;43.530;-5.652;2023-04-15T03:27:46;41.72;;;7.60;;
69414;SDS011;56608;43.530;-5.652;2023-04-15T03:28:46;51.77;;;8.73;;
69414;SDS011;56608;43.530;-5.652;2023-04-15T03:29:48;45.65;;;9.45;;
69414;SDS011;56608;43.530;-5.652;2023-04-15T03:30:50;46.75;;;7.55;;
69414;SDS011;56608;43.530;-5.652;2023-04-15T03:31:51;42.30;;;7.32;;
69414;SDS011;56608;43.530;-5.652;2023-04-15T03:32:52;41.17;;;7.75;;
69414;SDS011;56608;43.530;-5.652;2023-04-15T03:33:54;49.30;;;7.78;;
69414;SDS011;56608;43.530;-5.652;2023-04-15T03:34:54;45.60;;;8.30;;
69414;SDS011;56608;43.530;-5.652;2023-04-15T03:35:56;47.15;;;7.40;;
69414;SDS011;56608;43.530;-5.652;2023-04-15T03:36:58;41.70;;;8.20;;
69414;SDS011;56608;43.530;-5.652;2023-04-15T03:37:59;42.28;;;7.35;;
69414;SDS011;56608;43.530;-5.652;2023-04-15T03:39:01;38.03;;;7.40;;
69414;SDS011;56608;43.530;-5.652;2023-04-15T03:40:04;44.75;;;8.40;;
69414;SDS011;56608;43.530;-5.652;2023-04-15T03:41:06;42.45;;;7.45;;
69414;SDS011;56608;43.530;-5.652;2023-04-15T03:42:07;36.00;;;8.00;;
69414;SDS011;56608;43.530;-5.652;2023-04-15T03:43:08;43.00;;;7.00;;
69414;SDS011;56608;43.530;-5.652;2023-04-15T03:44:10;31.87;;;7.32;;
69414;SDS011;56608;43.530;-5.652;2023-04-15T03:45:11;35.95;;;7.65;;
69414;SDS011;56608;43.530;-5.652;2023-04-15T03:46:13;43.20;;;7.03;;
69414;SDS011;56608;43.530;-5.652;2023-04-15T03:47:14;40.70;;;8.40;;
69414;SDS011;56608;43.530;-5.652;2023-04-15T03:48:16;43.00;;;9.02;;
69414;SDS011;56608;43.530;-5.652;2023-04-15T03:49:17;40.85;;;6.75;;
69414;SDS011;56608;43.530;-5.652;2023-04-15T03:50:19;38.25;;;7.85;;
69414;SDS011;56608;43.530;-5.652;2023-04-15T03:51:21;34.35;;;6.55;;
69414;SDS011;56608;43.530;-5.652;2023-04-15T03:52:23;41.08;;;7.60;;
69414;SDS011;56608;43.530;-5.652;2023-04-15T03:53:24;41.08;;;7.20;;
69414;SDS011;56608;43.530;-5.652;2023-04-15T03:54:26;32.45;;;7.07;;
69414;SDS011;56608;43.530;-5.652;2023-04-15T03:55:27;45.70;;;6.93;;
69414;SDS011;56608;43.530;-5.652;2023-04-15T03:56:28;44.03;;;7.20;;
69414;SDS011;56608;43.530;-5.652;2023-04-15T03:57:30;40.50;;;7.45;;
69414;SDS011;56608;43.530;-5.652;2023-04-15T03:58:30;34.70;;;6.95;;
69414;SDS011;56608;43.530;-5.652;2023-04-15T03:59:32;38.90;;;7.15;;
69414;SDS011;56608;43.530;-5.652;2023-04-15T04:00:34;33.80;;;6.18;;
69414;SDS011;56608;43.530;-5.652;2023-04-15T04:01:35;34.20;;;6.85;;
69414;SDS011;56608;43.530;-5.652;2023-04-15T04:02:37;35.55;;;5.78;;
69414;SDS011;56608;43.530;-5.652;2023-04-15T04:03:38;39.95;;;7.03;;
69414;SDS011;56608;43.530;-5.652;2023-04-15T04:05:41;38.13;;;6.90;;
69414;SDS011;56608;43.530;-5.652;2023-04-15T04:06:44;36.65;;;6.40;;
69414;SDS011;56608;43.530;-5.652;2023-04-15T04:07:45;43.47;;;6.65;;
69414;SDS011;56608;43.530;-5.652;2023-04-15T04:08:47;38.42;;;6.72;;
69414;SDS011;56608;43.530;-5.652;2023-04-15T04:09:48;33.10;;;5.90;;
69414;SDS011;56608;43.530;-5.652;2023-04-15T04:10:50;34.70;;;6.78;;
69414;SDS011;56608;43.530;-5.652;2023-04-15T04:11:51;39.60;;;6.25;;
69414;SDS011;56608;43.530;-5.652;2023-04-15T04:12:53;38.10;;;6.70;;
69414;SDS011;56608;43.530;-5.652;2023-04-15T04:13:54;35.15;;;6.95;;
69414;SDS011;56608;43.530;-5.652;2023-04-15T04:14:55;33.17;;;6.55;;
69414;SDS011;56608;43.530;-5.652;2023-04-15T04:15:57;41.95;;;7.40;;
69414;SDS011;56608;43.530;-5.652;2023-04-15T04:16:58;33.08;;;6.10;;
69414;SDS011;56608;43.530;-5.652;2023-04-15T04:17:59;32.13;;;5.95;;
69414;SDS011;56608;43.530;-5.652;2023-04-15T04:19:01;41.28;;;6.75;;
69414;SDS011;56608;43.530;-5.652;2023-04-15T04:20:02;33.07;;;6.53;;
69414;SDS011;56608;43.530;-5.652;2023-04-15T04:21:04;29.75;;;5.97;;
69414;SDS011;56608;43.530;-5.652;2023-04-15T04:22:05;41.33;;;6.68;;
69414;SDS011;56608;43.530;-5.652;2023-04-15T04:23:07;33.83;;;5.53;;
69414;SDS011;56608;43.530;-5.652;2023-04-15T04:24:08;35.55;;;6.45;;
69414;SDS011;56608;43.530;-5.652;2023-04-15T04:25:09;38.70;;;7.20;;
69414;SDS011;56608;43.530;-5.652;2023-04-15T04:26:11;46.80;;;6.30;;
69414;SDS011;56608;43.530;-5.652;2023-04-15T04:27:12;40.25;;;6.80;;
69414;SDS011;56608;43.530;-5.652;2023-04-15T04:28:13;35.92;;;6.18;;
69414;SDS011;56608;43.530;-5.652;2023-04-15T04:29:15;35.42;;;5.93;;
69414;SDS011;56608;43.530;-5.652;2023-04-15T04:30:16;31.62;;;6.22;;
69414;SDS011;56608;43.530;-5.652;2023-04-15T04:31:18;31.60;;;6.15;;
69414;SDS011;56608;43.530;-5.652;2023-04-15T04:32:19;42.57;;;6.43;;
69414;SDS011;56608;43.530;-5.652;2023-04-15T04:33:21;28.48;;;6.00;;
69414;SDS011;56608;43.530;-5.652;2023-04-15T04:34:22;35.25;;;6.37;;
69414;SDS011;56608;43.530;-5.652;2023-04-15T04:35:23;42.13;;;6.90;;
69414;SDS011;56608;43.530;-5.652;2023-04-15T04:36:25;35.38;;;6.55;;
69414;SDS011;56608;43.530;-5.652;2023-04-15T04:37:26;35.25;;;6.20;;
69414;SDS011;56608;43.530;-5.652;2023-04-15T04:38:27;31.67;;;5.37;;
69414;SDS011;56608;43.530;-5.652;2023-04-15T04:39:29;46.50;;;6.15;;
69414;SDS011;56608;43.530;-5.652;2023-04-15T04:40:30;38.22;;;6.65;;
69414;SDS011;56608;43.530;-5.652;2023-04-15T04:41:32;47.70;;;6.18;;
69414;SDS011;56608;43.530;-5.652;2023-04-15T04:42:33;38.67;;;6.50;;
69414;SDS011;56608;43.530;-5.652;2023-04-15T04:43:35;40.42;;;6.60;;
69414;SDS011;56608;43.530;-5.652;2023-04-15T04:44:36;36.65;;;7.28;;
69414;SDS011;56608;43.530;-5.652;2023-04-15T04:45:37;33.40;;;6.20;;
69414;SDS011;56608;43.530;-5.652;2023-04-15T04:46:39;42.80;;;7.60;;
69414;SDS011;56608;43.530;-5.652;2023-04-15T04:47:40;33.55;;;6.28;;
69414;SDS011;56608;43.530;-5.652;2023-04-15T04:48:41;35.08;;;6.47;;
69414;SDS011;56608;43.530;-5.652;2023-04-15T04:49:43;34.45;;;6.95;;
69414;SDS011;56608;43.530;-5.652;2023-04-15T04:50:44;41.37;;;6.60;;
69414;SDS011;56608;43.530;-5.652;2023-04-15T04:51:46;29.10;;;6.05;;
69414;SDS011;56608;43.530;-5.652;2023-04-15T04:52:48;34.20;;;6.30;;
69414;SDS011;56608;43.530;-5.652;2023-04-15T04:53:50;28.20;;;6.62;;
69414;SDS011;56608;43.530;-5.652;2023-04-15T04:54:50;32.40;;;5.70;;
69414;SDS011;56608;43.530;-5.652;2023-04-15T04:55:52;28.55;;;5.35;;
69414;SDS011;56608;43.530;-5.652;2023-04-15T04:56:54;42.30;;;6.00;;
69414;SDS011;56608;43.530;-5.652;2023-04-15T04:57:55;29.30;;;5.95;;
69414;SDS011;56608;43.530;-5.652;2023-04-15T04:58:56;36.08;;;6.28;;
69414;SDS011;56608;43.530;-5.652;2023-04-15T04:59:58;30.98;;;5.47;;
69414;SDS011;56608;43.530;-5.652;2023-04-15T05:00:59;33.35;;;6.40;;
69414;SDS011;56608;43.530;-5.652;2023-04-15T05:02:01;29.90;;;5.60;;
69414;SDS011;56608;43.530;-5.652;2023-04-15T05:03:03;31.30;;;5.35;;
69414;SDS011;56608;43.530;-5.652;2023-04-15T05:04:03;26.80;;;6.10;;
69414;SDS011;56608;43.530;-5.652;2023-04-15T05:05:06;27.15;;;5.65;;
69414;SDS011;56608;43.530;-5.652;2023-04-15T05:06:07;31.70;;;5.65;;
69414;SDS011;56608;43.530;-5.652;2023-04-15T05:07:09;26.70;;;5.15;;
69414;SDS011;56608;43.530;-5.652;2023-04-15T05:08:10;26.98;;;5.35;;
69414;SDS011;56608;43.530;-5.652;2023-04-15T05:09:12;29.40;;;5.40;;
69414;SDS011;56608;43.530;-5.652;2023-04-15T05:10:13;24.87;;;4.97;;
69414;SDS011;56608;43.530;-5.652;2023-04-15T05:11:17;30.85;;;5.45;;
69414;SDS011;56608;43.530;-5.652;2023-04-15T05:12:18;32.90;;;6.00;;
69414;SDS011;56608;43.530;-5.652;2023-04-15T05:14:22;25.90;;;6.25;;
69414;SDS011;56608;43.530;-5.652;2023-04-15T05:15:24;29.85;;;5.40;;
69414;SDS011;56608;43.530;-5.652;2023-04-15T05:16:25;30.37;;;4.97;;
69414;SDS011;56608;43.530;-5.652;2023-04-15T05:17:27;29.87;;;5.05;;
69414;SDS011;56608;43.530;-5.652;2023-04-15T05:18:31;27.90;;;4.95;;
69414;SDS011;56608;43.530;-5.652;2023-04-15T05:19:32;23.05;;;5.25;;
69414;SDS011;56608;43.530;-5.652;2023-04-15T05:21:35;26.30;;;4.47;;
69414;SDS011;56608;43.530;-5.652;2023-04-15T05:22:37;29.30;;;5.50;;
69414;SDS011;56608;43.530;-5.652;2023-04-15T05:23:37;22.75;;;4.55;;
69414;SDS011;56608;43.530;-5.652;2023-04-15T05:24:38;25.55;;;5.50;;
69414;SDS011;56608;43.530;-5.652;2023-04-15T05:25:39;25.17;;;5.35;;
69414;SDS011;56608;43.530;-5.652;2023-04-15T05:26:40;25.73;;;4.62;;
69414;SDS011;56608;43.530;-5.652;2023-04-15T05:27:42;31.58;;;5.45;;
69414;SDS011;56608;43.530;-5.652;2023-04-15T05:28:43;19.80;;;4.53;;
69414;SDS011;56608;43.530;-5.652;2023-04-15T05:29:44;26.70;;;5.62;;
69414;SDS011;56608;43.530;-5.652;2023-04-15T05:30:46;28.98;;;5.45;;
69414;SDS011;56608;43.530;-5.652;2023-04-15T05:31:46;25.43;;;4.40;;
69414;SDS011;56608;43.530;-5.652;2023-04-15T05:32:48;20.40;;;4.57;;
69414;SDS011;56608;43.530;-5.652;2023-04-15T05:33:50;29.48;;;4.68;;
69414;SDS011;56608;43.530;-5.652;2023-04-15T05:34:51;28.97;;;4.83;;
69414;SDS011;56608;43.530;-5.652;2023-04-15T05:35:53;26.70;;;5.37;;
69414;SDS011;56608;43.530;-5.652;2023-04-15T05:36:54;21.52;;;5.25;;
69414;SDS011;56608;43.530;-5.652;2023-04-15T05:37:54;24.20;;;4.50;;
69414;SDS011;56608;43.530;-5.652;2023-04-15T05:38:56;23.45;;;4.50;;
69414;SDS011;56608;43.530;-5.652;2023-04-15T05:39:58;27.70;;;4.68;;
69414;SDS011;56608;43.530;-5.652;2023-04-15T05:40:58;23.90;;;4.90;;
69414;SDS011;56608;43.530;-5.652;2023-04-15T05:42:00;27.35;;;4.68;;
69414;SDS011;56608;43.530;-5.652;2023-04-15T05:43:02;25.70;;;5.03;;
69414;SDS011;56608;43.530;-5.652;2023-04-15T05:44:02;29.20;;;5.40;;
69414;SDS011;56608;43.530;-5.652;2023-04-15T05:45:04;25.60;;;5.50;;
69414;SDS011;56608;43.530;-5.652;2023-04-15T05:46:09;26.25;;;4.60;;
69414;SDS011;56608;43.530;-5.652;2023-04-15T05:47:10;29.45;;;4.87;;
69414;SDS011;56608;43.530;-5.652;2023-04-15T05:48:11;19.20;;;4.93;;
69414;SDS011;56608;43.530;-5.652;2023-04-15T05:49:13;26.58;;;6.05;;
69414;SDS011;56608;43.530;-5.652;2023-04-15T05:50:13;25.35;;;4.93;;
69414;SDS011;56608;43.530;-5.652;2023-04-15T05:51:15;21.50;;;5.05;;
69414;SDS011;56608;43.530;-5.652;2023-04-15T05:52:17;24.92;;;5.45;;
69414;SDS011;56608;43.530;-5.652;2023-04-15T05:53:27;22.50;;;5.15;;
69414;SDS011;56608;43.530;-5.652;2023-04-15T05:54:28;22.00;;;4.80;;
69414;SDS011;56608;43.530;-5.652;2023-04-15T05:55:30;21.40;;;4.82;;
69414;SDS011;56608;43.530;-5.652;2023-04-15T05:56:32;26.30;;;5.75;;
69414;SDS011;56608;43.530;-5.652;2023-04-15T05:57:34;21.60;;;4.45;;
69414;SDS011;56608;43.530;-5.652;2023-04-15T05:58:38;26.87;;;5.18;;
69414;SDS011;56608;43.530;-5.652;2023-04-15T05:59:39;24.90;;;4.65;;
69414;SDS011;56608;43.530;-5.652;2023-04-15T06:00:42;24.70;;;4.95;;
69414;SDS011;56608;43.530;-5.652;2023-04-15T06:01:44;22.70;;;4.50;;
69414;SDS011;56608;43.530;-5.652;2023-04-15T06:02:46;27.45;;;5.28;;
69414;SDS011;56608;43.530;-5.652;2023-04-15T06:03:47;23.15;;;4.97;;
69414;SDS011;56608;43.530;-5.652;2023-04-15T06:04:49;23.87;;;4.68;;
69414;SDS011;56608;43.530;-5.652;2023-04-15T06:05:50;21.77;;;4.33;;
69414;SDS011;56608;43.530;-5.652;2023-04-15T06:06:50;28.60;;;5.00;;
69414;SDS011;56608;43.530;-5.652;2023-04-15T06:07:52;21.35;;;4.80;;
69414;SDS011;56608;43.530;-5.652;2023-04-15T06:08:53;24.53;;;5.00;;
69414;SDS011;56608;43.530;-5.652;2023-04-15T06:09:55;22.85;;;4.75;;
69414;SDS011;56608;43.530;-5.652;2023-04-15T06:10:57;19.15;;;4.55;;
69414;SDS011;56608;43.530;-5.652;2023-04-15T06:11:58;28.05;;;5.15;;
69414;SDS011;56608;43.530;-5.652;2023-04-15T06:13:02;16.55;;;3.65;;
69414;SDS011;56608;43.530;-5.652;2023-04-15T06:14:04;18.70;;;4.80;;
69414;SDS011;56608;43.530;-5.652;2023-04-15T06:15:05;24.90;;;4.62;;
69414;SDS011;56608;43.530;-5.652;2023-04-15T06:16:09;19.40;;;4.50;;
69414;SDS011;56608;43.530;-5.652;2023-04-15T06:17:11;23.95;;;4.55;;
69414;SDS011;56608;43.530;-5.652;2023-04-15T06:18:14;26.50;;;5.00;;
69414;SDS011;56608;43.530;-5.652;2023-04-15T06:19:16;20.60;;;4.77;;
69414;SDS011;56608;43.530;-5.652;2023-04-15T06:20:17;24.35;;;4.50;;